Time;durP1;ratioP1;P1;durP2;ratioP2;P2;SDS_P1;SDS_P2;PMS_P1;PMS_P2;Temp;Humidity;BMP_temperature;BMP_pressure;BME280_temperature;BME280_humidity;BME280_pressure;Samples;Min_cycle;Max_cycle;Signal;HPM_P1;HPM_P2
2021/07/11 00:02:07;;;;;;;23.95;18.02;;;;;;;20.50;59.98;101544.13;10377269;28;20040;-72
2021/07/11 00:07:11;;;;;;;30.23;20.27;;;;;;;20.76;60.11;101592.22;10376437;28;20062;-72
2021/07/11 00:12:11;;;;;;;26.90;17.52;;;;;;;20.81;59.95;101589.56;10375244;28;20030;-72
2021/07/11 00:17:12;;;;;;;26.30;18.65;;;;;;;20.84;60.05;101592.66;10375451;28;20053;-72
2021/07/11 00:22:12;;;;;;;26.35;18.70;;;;;;;20.10;60.09;101468.03;10374881;28;20049;-72
2021/07/11 00:27:12;;;;;;;31.95;21.20;;;;;;;20.78;60.23;101577.13;10375923;28;20025;-72
2021/07/11 00:32:13;;;;;;;34.50;21.90;;;;;;;20.80;60.51;101620.91;10376040;28;20179;-72
2021/07/11 00:37:13;;;;;;;41.40;23.50;;;;;;;20.75;60.79;101598.81;10373751;28;20173;-71
2021/07/11 00:42:14;;;;;;;30.88;20.00;;;;;;;20.55;61.54;101615.78;10375497;28;20108;-72
2021/07/11 00:47:15;;;;;;;34.42;21.88;;;;;;;20.30;62.89;101627.13;10375178;28;20176;-71
2021/07/11 00:52:15;;;;;;;35.90;22.25;;;;;;;20.31;62.87;101626.84;10375203;28;20129;-71
2021/07/11 00:57:16;;;;;;;36.13;23.50;;;;;;;20.11;62.38;101588.78;10375025;28;20057;-72
2021/07/11 01:02:18;;;;;;;36.88;26.20;;;;;;;20.21;62.55;101607.41;10374980;28;20077;-71
2021/07/11 01:07:32;;;;;;;41.95;25.90;;;;;;;19.45;62.39;101516.75;10372618;28;20108;-71
2021/07/11 01:12:33;;;;;;;35.95;25.35;;;;;;;20.09;63.19;101617.59;10341733;28;20038;-72
2021/07/11 01:17:33;;;;;;;35.30;23.90;;;;;;;20.08;63.23;101585.69;10356958;28;20030;-73
2021/07/11 01:22:41;;;;;;;39.13;25.08;;;;;;;20.27;62.24;101624.84;10356632;28;20065;-73
2021/07/11 01:27:43;;;;;;;38.65;27.00;;;;;;;19.79;63.12;101535.34;10372863;28;20058;-73
2021/07/11 01:32:43;;;;;;;33.58;25.98;;;;;;;20.24;63.01;101612.41;10372934;28;20033;-72
2021/07/11 01:37:45;;;;;;;36.47;25.00;;;;;;;20.09;63.41;101599.19;10372687;28;20073;-72
2021/07/11 01:42:46;;;;;;;32.50;23.95;;;;;;;20.14;63.21;101621.31;10372460;28;20492;-72
2021/07/11 01:47:47;;;;;;;39.90;25.23;;;;;;;20.15;63.33;101622.13;10373559;28;20474;-73
2021/07/11 01:52:47;;;;;;;42.65;25.40;;;;;;;20.04;63.23;101599.09;10372500;28;20034;-73
2021/07/11 01:57:49;;;;;;;36.63;26.92;;;;;;;20.11;63.64;101624.53;10372088;28;20037;-73
2021/07/11 02:02:50;;;;;;;38.20;27.58;;;;;;;19.76;64.28;101608.13;10371538;28;20042;-73
2021/07/11 02:07:50;;;;;;;30.23;23.80;;;;;;;19.79;64.33;101617.81;10373327;28;20096;-73
2021/07/11 02:12:56;;;;;;;36.22;23.48;;;;;;;19.89;63.32;101612.53;10373062;28;20334;-73
2021/07/11 02:17:57;;;;;;;32.45;22.13;;;;;;;19.99;63.09;101626.47;10372105;28;20030;-73
2021/07/11 02:22:57;;;;;;;23.45;19.70;;;;;;;19.95;63.02;101617.06;10371909;28;20037;-73
2021/07/11 02:27:58;;;;;;;30.80;22.40;;;;;;;19.95;62.86;101622.56;10355092;28;20445;-74
2021/07/11 02:32:59;;;;;;;28.73;21.38;;;;;;;19.67;62.77;101602.16;10371173;28;20189;-73
2021/07/11 02:38:00;;;;;;;26.80;20.77;;;;;;;19.92;62.74;101628.53;10371296;28;20038;-73
2021/07/11 02:43:02;;;;;;;38.58;24.83;;;;;;;19.91;62.70;101629.59;10373282;28;20030;-73
2021/07/11 02:48:02;;;;;;;28.67;21.67;;;;;;;19.89;62.83;101624.34;10378815;28;20119;-74
2021/07/11 02:53:03;;;;;;;33.67;21.45;;;;;;;19.88;63.19;101622.69;10378612;28;20115;-74
2021/07/11 02:58:08;;;;;;;22.92;20.05;;;;;;;19.19;62.75;101542.81;10378382;28;20034;-74
2021/07/11 03:03:10;;;;;;;23.48;20.85;;;;;;;19.18;64.18;101568.59;10361159;28;20470;-73
2021/07/11 03:08:11;;;;;;;28.30;18.83;;;;;;;19.38;64.75;101633.31;10378036;28;20046;-72
2021/07/11 03:13:11;;;;;;;23.85;19.60;;;;;;;18.72;64.88;101526.31;10377974;28;20034;-72
2021/07/11 03:18:11;;;;;;;24.85;21.40;;;;;;;18.80;64.76;101512.25;10377518;28;20037;-72
2021/07/11 03:23:12;;;;;;;22.95;18.98;;;;;;;19.33;64.23;101587.34;10394334;28;20072;-72
2021/07/11 03:28:12;;;;;;;22.80;18.38;;;;;;;19.39;64.35;101594.63;10376885;28;20121;-71
2021/07/11 03:33:13;;;;;;;19.70;14.55;;;;;;;19.38;63.65;101595.69;10376236;28;20042;-72
2021/07/11 03:38:24;;;;;;;19.33;15.65;;;;;;;19.38;62.94;101605.84;10377037;28;20033;-72
2021/07/11 03:43:25;;;;;;;24.55;19.15;;;;;;;19.15;63.59;101571.00;10360332;28;20076;-72
2021/07/11 03:48:31;;;;;;;20.25;17.98;;;;;;;19.27;63.85;101605.63;10376363;28;20065;-72
2021/07/11 03:53:32;;;;;;;31.77;17.95;;;;;;;19.35;63.80;101589.84;10376755;28;20052;-72
2021/07/11 03:58:39;;;;;;;22.98;17.55;;;;;;;19.34;63.15;101593.69;10359781;28;20117;-72
2021/07/11 04:03:40;;;;;;;;;;;;;;;19.31;62.62;101591.41;10375671;28;20124;-73
2021/07/11 04:08:40;;;;;;;17.45;15.40;;;;;;;19.18;63.97;101546.66;10376244;28;19921;-72
2021/07/11 04:13:41;;;;;;;21.90;16.58;;;;;;;18.75;63.84;101479.19;10375301;28;20030;-73
2021/07/11 04:18:45;;;;;;;30.30;19.40;;;;;;;19.01;63.81;101562.97;10375328;28;20062;-72
2021/07/11 04:23:47;;;;;;;24.02;16.92;;;;;;;19.01;63.89;101564.88;10358820;28;20034;-71
2021/07/11 04:28:47;;;;;;;30.75;19.90;;;;;;;19.01;64.20;101567.63;10375177;28;20033;-72
2021/07/11 04:33:48;;;;;;;28.38;20.30;;;;;;;18.98;64.48;101568.09;10373869;28;20037;-73
2021/07/11 04:38:48;;;;;;;25.30;20.10;;;;;;;18.96;64.47;101568.34;10357821;28;20030;-73
2021/07/11 04:43:50;;;;;;;27.60;18.75;;;;;;;18.37;64.61;101457.66;10375520;28;20477;-71
2021/07/11 04:48:50;;;;;;;30.13;21.52;;;;;;;18.99;64.40;101562.38;10375242;28;20058;-72
2021/07/11 04:53:51;;;;;;;24.02;18.92;;;;;;;19.20;64.50;101562.88;10373897;28;20061;-73
2021/07/11 04:58:51;;;;;;;29.23;22.35;;;;;;;19.92;63.34;101590.06;10373889;28;20041;-72
2021/07/11 05:03:52;;;;;;;22.83;18.88;;;;;;;19.93;63.01;101580.72;10373855;28;20129;-74
2021/07/11 05:08:53;;;;;;;26.42;21.15;;;;;;;20.63;62.59;101555.66;10372313;28;20492;-72
2021/07/11 05:13:53;;;;;;;27.17;18.25;;;;;;;21.48;61.90;101584.03;10373254;28;20030;-72
2021/07/11 05:18:53;;;;;;;21.67;17.95;;;;;;;21.31;60.87;101511.56;10373100;28;20026;-71
2021/07/11 05:23:54;;;;;;;27.23;19.98;;;;;;;21.12;61.80;101589.00;10373168;28;20397;-71
2021/07/11 05:28:54;;;;;;;20.90;16.65;;;;;;;20.60;62.83;101547.09;10356424;28;20397;-71
2021/07/11 05:33:55;;;;;;;22.85;16.75;;;;;;;20.72;62.99;101608.41;10372164;28;20196;-72
2021/07/11 05:38:55;;;;;;;25.88;16.95;;;;;;;20.41;63.47;101601.47;10356292;28;20057;-72
2021/07/11 05:43:55;;;;;;;21.73;17.77;;;;;;;19.82;63.84;101534.88;10356202;28;20056;-72
2021/07/11 05:48:56;;;;;;;31.65;20.02;;;;;;;20.14;64.96;101618.56;10372505;28;20034;-73
2021/07/11 05:53:57;;;;;;;30.90;21.15;;;;;;;19.79;64.84;101543.59;10373546;28;20037;-71
2021/07/11 05:58:57;;;;;;;24.27;20.50;;;;;;;19.81;65.54;101593.66;10374291;28;20041;-71
2021/07/11 06:03:57;;;;;;;27.90;20.33;;;;;;;20.05;66.39;101647.50;10371466;28;20046;-72
2021/07/11 06:08:58;;;;;;;30.02;21.92;;;;;;;19.53;65.44;101551.28;10372949;28;20497;-71
2021/07/11 06:13:58;;;;;;;29.38;23.38;;;;;;;19.46;65.50;101569.78;10371984;28;20042;-72
2021/07/11 06:18:59;;;;;;;28.85;21.88;;;;;;;20.04;65.50;101673.34;10378145;28;20046;-72
2021/07/11 06:23:59;;;;;;;34.33;25.02;;;;;;;19.92;65.63;101661.53;10379692;28;20036;-72
2021/07/11 06:28:59;;;;;;;38.95;27.85;;;;;;;19.91;65.60;101668.06;10379219;28;20477;-72
2021/07/11 06:34:00;;;;;;;49.42;28.58;;;;;;;19.60;65.89;101606.91;10378088;28;20045;-72
2021/07/11 06:39:01;;;;;;;49.05;30.95;;;;;;;19.84;66.22;101648.97;10379020;28;20065;-72
2021/07/11 06:44:02;;;;;;;52.33;32.50;;;;;;;19.97;66.23;101667.13;10362451;28;20029;-71
2021/07/11 06:49:02;;;;;;;41.70;32.30;;;;;;;19.91;66.30;101649.69;10379693;28;20037;-73
2021/07/11 06:54:02;;;;;;;55.20;35.50;;;;;;;19.84;66.03;101626.16;10379364;28;20041;-73
2021/07/11 06:59:03;;;;;;;44.35;34.28;;;;;;;20.13;66.19;101674.63;10378998;28;20097;-72
2021/07/11 07:04:03;;;;;;;51.72;39.05;;;;;;;20.23;66.20;101678.66;10377178;28;20065;-72
2021/07/11 07:09:04;;;;;;;50.13;36.58;;;;;;;20.32;66.10;101679.94;10377579;28;20565;-72
2021/07/11 07:14:04;;;;;;;56.10;37.05;;;;;;;20.41;66.33;101684.00;10377566;28;20038;-72
2021/07/11 07:19:05;;;;;;;47.65;34.60;;;;;;;20.55;65.84;101687.31;10376169;28;20087;-73
2021/07/11 07:24:05;;;;;;;46.90;32.00;;;;;;;20.64;65.57;101675.69;10373804;28;20057;-72
2021/07/11 07:29:06;;;;;;;49.38;31.13;;;;;;;20.35;64.92;101644.53;10376522;28;20030;-75
2021/07/11 07:34:06;;;;;;;42.97;29.40;;;;;;;20.54;65.04;101694.75;10369829;28;20112;-73
2021/07/11 07:39:07;;;;;;;44.50;30.50;;;;;;;20.56;64.68;101697.25;10354034;28;20065;-71
2021/07/11 07:44:07;;;;;;;40.15;28.77;;;;;;;20.39;64.59;101680.66;10371794;28;20100;-71
2021/07/11 07:49:07;;;;;;;40.05;29.88;;;;;;;20.61;64.90;101691.84;10377424;28;20117;-72
2021/07/11 07:54:08;;;;;;;36.58;29.88;;;;;;;20.93;64.55;101694.97;10377054;28;20042;-73
2021/07/11 07:59:08;;;;;;;47.28;32.13;;;;;;;21.06;64.52;101715.84;10375793;28;20128;-73
2021/07/11 08:04:09;;;;;;;39.83;30.60;;;;;;;21.12;64.73;101710.16;10375989;28;20057;-72
2021/07/11 08:09:09;;;;;;;39.15;29.42;;;;;;;21.23;64.29;101699.31;10375080;28;20046;-72
2021/07/11 08:14:10;;;;;;;42.22;29.38;;;;;;;21.46;64.01;101703.88;10375239;28;20474;-72
2021/07/11 08:19:10;;;;;;;36.60;27.63;;;;;;;21.64;63.58;101700.03;10374921;28;20036;-72
2021/07/11 08:24:11;;;;;;;30.38;26.17;;;;;;;21.73;63.31;101687.47;10374589;28;20469;-73
2021/07/11 08:29:11;;;;;;;39.70;27.73;;;;;;;21.99;62.82;101700.56;10374936;28;20060;-71
2021/07/11 08:34:12;;;;;;;38.38;25.23;;;;;;;22.23;62.50;101686.53;10374490;28;20045;-72
2021/07/11 08:39:12;;;;;;;33.78;27.75;;;;;;;22.57;61.57;101692.75;10375496;28;20081;-72
2021/07/11 08:44:12;;;;;;;31.08;25.40;;;;;;;24.68;59.75;101669.13;10373923;28;20478;-72
2021/07/11 08:49:13;;;;;;;35.70;23.40;;;;;;;24.90;55.42;101414.00;10373388;28;20088;-72
2021/07/11 08:54:15;;;;;;;30.67;22.08;;;;;;;27.45;53.47;101661.56;10374540;28;20052;-72
2021/07/11 08:59:15;;;;;;;29.00;20.98;;;;;;;27.18;54.07;101666.81;10373436;28;20026;-72
2021/07/11 09:04:16;;;;;;;33.92;21.77;;;;;;;27.39;54.01;101695.28;10371377;28;20121;-71
2021/07/11 09:09:27;;;;;;;22.63;18.50;;;;;;;28.61;53.23;101688.34;10332497;28;20401;-72
2021/07/11 09:14:28;;;;;;;22.80;18.75;;;;;;;28.56;49.76;101691.25;10372850;28;20076;-73
2021/07/11 09:19:41;;;;;;;22.40;19.35;;;;;;;28.69;52.98;101684.09;10372986;28;20050;-70
2021/07/11 09:25:08;;;;;;;20.30;18.25;;;;;;;29.22;52.80;101694.16;10374015;28;20040;-71
2021/07/11 09:30:10;;;;;;;;;;;;;;;29.51;51.27;101689.16;10371079;28;20137;-71
2021/07/11 09:35:11;;;;;;;27.20;16.35;;;;;;;29.77;48.34;101663.59;10373554;28;20276;-70
2021/07/11 09:40:14;;;;;;;19.20;16.98;;;;;;;30.25;47.35;101702.31;10372893;28;20034;-70
2021/07/11 09:45:27;;;;;;;21.70;15.23;;;;;;;28.67;50.31;101656.50;10372672;28;20025;-71
2021/07/11 09:50:28;;;;;;;17.38;15.65;;;;;;;28.55;48.99;101702.66;10373368;28;20083;-73
2021/07/11 09:55:30;;;;;;;16.10;14.50;;;;;;;28.16;49.22;101685.03;10381174;28;20465;-74
2021/07/11 10:00:31;;;;;;;20.77;17.50;;;;;;;27.45;49.43;101685.78;10381710;28;20080;-73
2021/07/11 10:05:31;;;;;;;17.25;15.50;;;;;;;27.02;49.44;101643.81;10380566;28;20034;-73
2021/07/11 10:10:33;;;;;;;18.60;16.60;;;;;;;27.18;49.63;101681.53;10363687;28;20389;-73
2021/07/11 10:15:35;;;;;;;24.13;15.65;;;;;;;27.15;49.94;101671.00;10380185;28;20392;-73
2021/07/11 10:20:42;;;;;;;19.58;15.13;;;;;;;27.53;50.60;101657.31;10363500;28;20033;-74
2021/07/11 10:25:43;;;;;;;16.95;15.05;;;;;;;27.79;49.63;101664.31;10379684;28;20553;-72
2021/07/11 10:30:45;;;;;;;20.13;15.18;;;;;;;27.13;50.09;101673.22;10380570;28;20032;-74
2021/07/11 10:35:50;;;;;;;19.05;16.50;;;;;;;27.23;50.63;101675.94;10378467;28;20370;-75
2021/07/11 10:40:50;;;;;;;26.05;16.13;;;;;;;27.46;50.41;101662.38;10380283;28;20069;-73
2021/07/11 10:45:51;;;;;;;17.85;15.88;;;;;;;27.61;50.06;101678.09;10380133;28;20062;-73
2021/07/11 10:50:51;;;;;;;20.60;16.00;;;;;;;27.39;50.22;101668.28;10380094;28;20420;-72
2021/07/11 10:55:51;;;;;;;19.90;16.35;;;;;;;27.09;51.03;101664.63;10379364;28;20465;-73
2021/07/11 11:00:54;;;;;;;26.48;18.20;;;;;;;26.04;50.83;101665.78;10378613;28;20053;-73
2021/07/11 11:05:55;;;;;;;29.17;18.20;;;;;;;26.23;51.88;101673.44;10359775;28;20057;-72
2021/07/11 11:10:56;;;;;;;25.23;21.73;;;;;;;26.01;52.27;101638.59;10376912;28;20029;-73
2021/07/11 11:16:00;;;;;;;24.80;18.48;;;;;;;26.26;52.55;101662.63;10357831;28;20397;-74
2021/07/11 11:21:03;;;;;;;22.30;20.23;;;;;;;26.04;51.28;101682.44;10376349;28;20104;-73
2021/07/11 11:26:04;;;;;;;19.10;17.13;;;;;;;25.90;52.43;101675.78;10376802;28;20033;-75
2021/07/11 11:31:15;;;;;;;16.38;14.85;;;;;;;26.19;50.27;101692.63;10360542;28;20034;-72
2021/07/11 11:36:23;;;;;;;13.77;11.52;;;;;;;25.87;52.25;101690.22;10375633;28;20037;-72
2021/07/11 11:41:25;;;;;;;17.95;13.57;;;;;;;25.87;54.24;101674.41;10343655;28;20073;-71
2021/07/11 11:46:30;;;;;;;14.73;11.88;;;;;;;26.38;52.60;101676.16;10391718;28;20068;-72
2021/07/11 11:57:32;;;;;;;14.80;13.38;;;;;;;27.36;50.82;101691.13;10684506;22;20057;-72
2021/07/11 12:02:33;;;;;;;14.07;12.18;;;;;;;28.83;49.79;101690.56;10415875;28;20041;-71
2021/07/11 12:07:33;;;;;;;12.55;11.38;;;;;;;29.72;46.00;101692.47;10417374;28;20091;-71
2021/07/11 12:12:34;;;;;;;12.85;9.70;;;;;;;30.95;44.35;101676.75;10415338;28;20049;-72
2021/07/11 12:17:34;;;;;;;10.32;8.52;;;;;;;30.95;43.03;101685.13;10398282;28;20029;-72
2021/07/11 12:22:36;;;;;;;9.02;8.18;;;;;;;31.13;42.44;101694.47;10415149;28;20041;-71
2021/07/11 12:27:37;;;;;;;10.27;8.68;;;;;;;31.03;43.15;101680.75;10397768;28;20083;-72
2021/07/11 12:32:42;;;;;;;9.80;8.05;;;;;;;30.32;43.13;101678.44;10416201;28;20124;-72
2021/07/11 12:37:53;;;;;;;11.18;7.20;;;;;;;29.95;44.38;101682.25;10416136;28;20090;-71
2021/07/11 12:43:05;;;;;;;11.50;7.60;;;;;;;30.07;45.21;101682.56;10414907;28;20524;-71
2021/07/11 12:48:05;;;;;;;8.07;7.28;;;;;;;29.77;42.43;101674.78;10414902;28;20029;-72
2021/07/11 12:53:06;;;;;;;8.85;6.32;;;;;;;29.83;43.21;101648.41;10397852;28;20037;-73
2021/07/11 12:58:16;;;;;;;7.65;6.88;;;;;;;29.63;45.47;101664.41;10413045;28;20083;-74
2021/07/11 13:03:24;;;;;;;6.97;6.32;;;;;;;29.77;42.92;101656.09;10414034;28;20029;-72
2021/07/11 13:08:25;;;;;;;5.25;4.85;;;;;;;30.08;43.84;101655.44;10339322;28;20160;-73
2021/07/11 13:13:25;;;;;;;4.85;4.43;;;;;;;30.71;41.40;101631.44;10414393;28;20128;-73
2021/07/11 13:29:58;;;;;;;3.33;2.47;;;;;;;31.25;39.25;101652.75;10690429;22;20104;-72
2021/07/11 13:34:58;;;;;;;2.35;2.25;;;;;;;32.17;38.50;101643.84;10374786;28;20504;-71
2021/07/11 13:39:59;;;;;;;2.40;2.30;;;;;;;32.72;36.39;101629.22;10374068;28;20366;-72
2021/07/11 13:44:59;;;;;;;3.50;3.20;;;;;;;33.27;36.67;101631.31;10373681;28;20401;-73
2021/07/11 13:50:03;;;;;;;2.75;2.65;;;;;;;32.99;34.87;101632.84;10357830;28;20069;-72
2021/07/11 13:55:05;;;;;;;6.85;5.43;;;;;;;31.83;41.08;101625.72;10374199;28;20037;-73
2021/07/11 14:00:07;;;;;;;8.55;7.85;;;;;;;30.96;39.20;101596.47;10373914;28;20061;-76
2021/07/11 14:05:08;;;;;;;10.23;9.20;;;;;;;31.24;39.94;101631.53;10372986;28;20037;-76
2021/07/11 14:10:09;;;;;;;8.95;7.50;;;;;;;30.95;40.51;101626.41;10373493;28;20042;-75
2021/07/11 14:15:10;;;;;;;8.48;7.57;;;;;;;30.25;41.25;101622.16;10356518;28;20033;-77
2021/07/11 14:20:11;;;;;;;10.18;9.20;;;;;;;29.57;43.89;101646.09;10373843;28;20115;-79
2021/07/11 14:25:12;;;;;;;12.80;9.75;;;;;;;28.65;44.29;101644.00;10372193;28;20034;-76
2021/07/11 14:30:13;;;;;;;12.75;10.10;;;;;;;28.80;45.62;101657.69;10355545;28;20374;-77
2021/07/11 14:35:14;;;;;;;10.27;9.27;;;;;;;28.05;44.82;101508.91;10372568;28;20046;-77
2021/07/11 14:40:14;;;;;;;10.38;9.35;;;;;;;28.21;43.83;101589.47;10362379;28;20034;-77
2021/07/11 14:45:15;;;;;;;21.48;10.93;;;;;;;29.01;44.06;101632.34;10363103;28;20371;-78
2021/07/11 14:50:15;;;;;;;18.40;11.05;;;;;;;29.20;43.66;101633.94;10363385;28;20026;-77
2021/07/11 14:55:16;;;;;;;11.13;9.50;;;;;;;29.06;43.53;101626.66;10362900;28;20438;-77
2021/07/11 15:00:17;;;;;;;17.13;9.57;;;;;;;29.55;43.35;101614.88;10378819;28;20474;-77
2021/07/11 15:05:17;;;;;;;9.88;8.65;;;;;;;29.79;42.26;101614.69;10379278;28;20553;-77
2021/07/11 15:10:17;;;;;;;11.48;10.38;;;;;;;29.29;43.78;101614.53;10363155;28;20033;-78
2021/07/11 15:15:18;;;;;;;12.10;10.52;;;;;;;28.84;44.61;101625.28;10381501;28;20111;-78
2021/07/11 15:20:18;;;;;;;11.02;9.88;;;;;;;28.79;43.84;101614.25;10378769;28;20042;-77
2021/07/11 15:25:19;;;;;;;11.00;9.98;;;;;;;28.18;43.92;101506.50;10362461;28;20038;-78
2021/07/11 15:30:19;;;;;;;12.40;7.38;;;;;;;29.00;43.65;101594.38;10380066;28;20385;-79
2021/07/11 15:35:21;;;;;;;10.60;9.70;;;;;;;29.14;43.79;101598.06;10377669;28;20030;-77
2021/07/11 15:40:21;;;;;;;8.98;8.23;;;;;;;29.47;43.05;101581.28;10377669;28;20474;-77
2021/07/11 15:45:22;;;;;;;10.45;7.47;;;;;;;29.27;43.02;101583.31;10378018;28;20033;-78
2021/07/11 15:50:22;;;;;;;7.13;6.53;;;;;;;29.35;42.93;101563.06;10377764;28;20061;-78
2021/07/11 15:55:23;;;;;;;4.25;3.92;;;;;;;28.78;44.71;101565.22;10377056;28;20042;-78
2021/07/11 16:00:23;;;;;;;3.58;3.10;;;;;;;29.01;45.11;101573.78;10377899;28;20042;-78
2021/07/11 16:05:24;;;;;;;4.68;4.25;;;;;;;29.15;42.07;101561.50;10376000;28;20042;-78
2021/07/11 16:10:25;;;;;;;2.95;2.75;;;;;;;29.14;42.21;101556.25;10359483;28;20395;-78
2021/07/11 16:15:27;;;;;;;5.22;3.63;;;;;;;28.83;41.94;101562.31;10376751;28;20104;-77
2021/07/11 16:20:28;;;;;;;4.85;3.05;;;;;;;28.46;42.77;101533.41;10376571;28;20037;-77
2021/07/11 16:25:28;;;;;;;3.28;2.97;;;;;;;28.64;42.26;101554.00;10375225;28;20144;-77
2021/07/11 16:30:29;;;;;;;2.65;2.55;;;;;;;28.37;42.94;101543.53;10375264;28;20064;-78
2021/07/11 16:35:29;;;;;;;3.15;2.88;;;;;;;27.26;43.56;101532.72;10360042;28;20413;-78
2021/07/11 16:40:31;;;;;;;3.45;2.67;;;;;;;27.21;45.76;101527.19;10374942;28;20096;-78
2021/07/11 16:45:31;;;;;;;3.78;2.92;;;;;;;26.78;45.24;101543.72;10375243;28;20030;-78
2021/07/11 16:50:32;;;;;;;2.38;2.20;;;;;;;25.99;47.11;101471.50;10375974;28;20038;-78
2021/07/11 16:55:32;;;;;;;4.63;3.13;;;;;;;26.00;47.37;101544.47;10374652;28;20121;-78
2021/07/11 17:00:32;;;;;;;2.60;2.40;;;;;;;25.64;47.29;101491.91;10375735;28;20092;-77
2021/07/11 17:05:33;;;;;;;9.02;2.53;;;;;;;25.75;48.23;101529.63;10374469;28;20056;-77
2021/07/11 17:10:33;;;;;;;2.70;2.55;;;;;;;25.48;47.38;101541.91;10376463;28;20387;-78
2021/07/11 17:15:34;;;;;;;4.07;3.60;;;;;;;25.34;48.38;101532.53;10373585;28;20113;-78
2021/07/11 17:20:34;;;;;;;3.80;3.42;;;;;;;25.32;47.89;101537.50;10359243;28;20132;-77
2021/07/11 17:25:35;;;;;;;6.57;5.88;;;;;;;25.17;49.01;101523.69;10373820;28;20453;-80
2021/07/11 17:30:35;;;;;;;8.20;5.22;;;;;;;25.18;49.20;101548.38;10356662;28;20101;-78
2021/07/11 17:35:35;;;;;;;10.23;9.23;;;;;;;25.14;50.29;101547.25;10357422;28;20037;-78
2021/07/11 17:40:36;;;;;;;17.92;12.07;;;;;;;24.63;51.92;101525.09;10357393;28;20136;-77
2021/07/11 17:45:37;;;;;;;16.25;10.52;;;;;;;24.65;51.48;101545.03;10376468;28;20041;-77
2021/07/11 17:50:37;;;;;;;10.57;9.57;;;;;;;24.47;51.87;101543.63;10375145;28;20061;-77
2021/07/11 17:55:37;;;;;;;13.77;11.68;;;;;;;24.38;51.80;101539.75;10373254;28;20041;-78
2021/07/11 18:00:38;;;;;;;12.10;10.93;;;;;;;24.26;52.50;101551.06;10373485;28;20466;-77
2021/07/11 18:05:38;;;;;;;20.75;11.30;;;;;;;24.21;52.21;101550.19;10374078;28;20108;-78
2021/07/11 18:10:39;;;;;;;14.93;12.07;;;;;;;24.17;52.32;101552.69;10373892;28;20034;-78
2021/07/11 18:15:39;;;;;;;14.90;10.88;;;;;;;24.14;52.21;101556.81;10379249;28;20109;-77
2021/07/11 18:20:40;;;;;;;16.85;11.18;;;;;;;24.23;52.38;101548.84;10380723;28;20451;-78
2021/07/11 18:25:40;;;;;;;12.13;10.50;;;;;;;23.88;52.97;101497.81;10379774;28;20496;-77
2021/07/11 18:30:41;;;;;;;12.25;11.10;;;;;;;23.08;53.19;101383.91;10380759;28;20053;-77
2021/07/11 18:35:42;;;;;;;12.85;10.10;;;;;;;23.99;53.02;101542.13;10381324;28;20034;-78
2021/07/11 18:40:45;;;;;;;10.00;9.10;;;;;;;23.81;53.83;101551.75;10380077;28;20084;-79
2021/07/11 18:45:45;;;;;;;11.82;10.10;;;;;;;23.62;53.79;101545.81;10380070;28;20041;-79
2021/07/11 18:50:47;;;;;;;12.65;10.20;;;;;;;23.17;54.34;101514.91;10381537;28;20034;-79
2021/07/11 18:55:48;;;;;;;14.95;11.10;;;;;;;22.96;54.91;101516.69;10363088;28;20116;-78
2021/07/11 19:00:48;;;;;;;12.43;11.18;;;;;;;22.45;55.10;101477.63;10364158;28;20030;-78
2021/07/11 19:05:50;;;;;;;11.98;9.98;;;;;;;22.70;55.21;101523.09;10362861;28;20026;-77
2021/07/11 19:10:55;;;;;;;11.23;10.07;;;;;;;22.34;55.98;101533.81;10380497;28;20045;-78
2021/07/11 19:15:55;;;;;;;12.27;11.05;;;;;;;22.04;56.28;101529.59;10379349;28;20034;-78
2021/07/11 19:20:56;;;;;;;13.95;12.00;;;;;;;21.73;57.85;101528.44;10363320;28;20045;-78
2021/07/11 19:25:56;;;;;;;23.60;15.38;;;;;;;21.38;59.57;101526.03;10377064;28;20133;-79
2021/07/11 19:30:56;;;;;;;19.50;14.80;;;;;;;21.24;59.44;101520.00;10377951;28;20050;-78
2021/07/11 19:35:57;;;;;;;18.05;16.13;;;;;;;21.17;59.46;101519.38;10377776;28;20046;-78
2021/07/11 19:40:59;;;;;;;22.05;15.80;;;;;;;21.07;59.06;101525.56;10361854;28;20124;-78
2021/07/11 19:45:59;;;;;;;20.63;15.80;;;;;;;20.55;58.84;101476.31;10361538;28;20431;-78
2021/07/11 19:51:00;;;;;;;21.35;14.75;;;;;;;20.88;58.41;101537.94;10377117;28;20065;-79
2021/07/11 19:56:05;;;;;;;16.15;14.63;;;;;;;20.77;58.68;101542.44;10377975;28;20054;-79
2021/07/11 20:01:06;;;;;;;15.48;13.40;;;;;;;20.65;58.96;101533.44;10378236;28;20037;-78
2021/07/11 20:06:06;;;;;;;18.80;15.20;;;;;;;20.52;59.02;101534.59;10376233;28;20056;-77
2021/07/11 20:11:07;;;;;;;26.25;16.13;;;;;;;20.15;59.53;101504.72;10345175;28;20030;-78
2021/07/11 20:16:07;;;;;;;15.77;13.93;;;;;;;20.05;59.61;101503.72;10377582;28;20037;-78
2021/07/11 20:21:08;;;;;;;20.33;15.20;;;;;;;20.18;59.72;101544.66;10376232;28;20447;-78
2021/07/11 20:26:08;;;;;;;20.73;17.75;;;;;;;19.93;60.52;101543.06;10377290;28;20451;-79
2021/07/11 20:31:09;;;;;;;27.05;17.80;;;;;;;19.69;61.46;101523.06;10375541;28;20050;-78
2021/07/11 20:36:10;;;;;;;20.02;17.60;;;;;;;19.68;61.58;101520.56;10375400;28;20428;-78
2021/07/11 20:41:10;;;;;;;29.88;18.85;;;;;;;19.74;61.24;101525.91;10375660;28;20042;-78
2021/07/11 20:46:14;;;;;;;22.88;19.02;;;;;;;19.86;61.20;101541.53;10375831;28;20045;-78
2021/07/11 20:51:14;;;;;;;25.52;21.40;;;;;;;19.61;61.20;101497.84;10375186;28;20084;-79
2021/07/11 20:56:16;;;;;;;27.98;19.75;;;;;;;18.87;61.50;101380.41;10374226;28;20033;-78
2021/07/11 21:01:17;;;;;;;32.90;21.50;;;;;;;19.54;60.99;101503.47;10360300;28;20045;-78
2021/07/11 21:06:18;;;;;;;29.90;22.38;;;;;;;19.24;61.56;101484.41;10374752;28;20512;-78
2021/07/11 21:11:19;;;;;;;31.00;22.58;;;;;;;19.51;61.54;101525.94;10374585;28;20038;-78
2021/07/11 21:16:19;;;;;;;30.40;24.08;;;;;;;19.31;61.84;101492.56;10376807;28;20069;-78
2021/07/11 21:21:19;;;;;;;31.77;24.02;;;;;;;19.31;62.23;101506.28;10375947;28;20513;-78
2021/07/11 21:26:20;;;;;;;25.33;20.88;;;;;;;19.12;62.10;101491.84;10357255;28;20124;-78
2021/07/11 21:31:21;;;;;;;30.52;20.38;;;;;;;19.11;62.48;101517.63;10374422;28;20042;-78
2021/07/11 21:36:22;;;;;;;25.58;20.70;;;;;;;18.15;62.28;101364.16;10357036;28;20099;-77
2021/07/11 21:41:22;;;;;;;34.97;21.80;;;;;;;19.08;62.30;101510.72;10358400;28;20087;-78
2021/07/11 21:46:24;;;;;;;35.67;23.50;;;;;;;19.05;63.16;101516.69;10373635;28;20103;-78
2021/07/11 21:51:24;;;;;;;39.67;22.42;;;;;;;18.96;62.95;101531.84;10382936;28;20084;-77
2021/07/11 21:56:25;;;;;;;32.92;24.35;;;;;;;17.73;62.96;101325.81;10382158;28;20088;-78
2021/07/11 22:01:25;;;;;;;33.90;23.50;;;;;;;18.79;63.20;101535.28;10382635;28;20033;-78
2021/07/11 22:06:25;;;;;;;34.28;24.73;;;;;;;18.13;62.83;101443.91;10380849;28;20543;-78
2021/07/11 22:11:26;;;;;;;35.72;26.70;;;;;;;18.55;64.33;101497.88;10348496;28;20054;-77
2021/07/11 22:16:26;;;;;;;37.22;25.42;;;;;;;18.52;63.86;101488.22;10382589;28;20477;-78
2021/07/11 22:21:27;;;;;;;30.75;24.13;;;;;;;18.64;64.21;101507.44;10384467;28;20520;-79
2021/07/11 22:26:27;;;;;;;33.67;26.25;;;;;;;18.63;64.08;101503.00;10367228;28;20045;-80
2021/07/11 22:31:28;;;;;;;34.80;24.20;;;;;;;18.58;64.02;101502.91;10365020;28;20030;-80
2021/07/11 22:36:28;;;;;;;35.78;27.05;;;;;;;18.39;63.49;101471.97;10382605;28;20121;-80
2021/07/11 22:41:28;;;;;;;32.22;26.38;;;;;;;18.09;63.50;101422.66;10367059;28;20385;-79
2021/07/11 22:46:30;;;;;;;37.85;25.55;;;;;;;18.42;63.71;101467.94;10366284;28;20034;-79
2021/07/11 22:51:30;;;;;;;38.42;25.88;;;;;;;18.45;63.88;101484.75;10382015;28;20037;-79
2021/07/11 22:56:31;;;;;;;34.67;26.02;;;;;;;18.46;63.71;101482.84;10381041;28;20065;-77